sensor_id;sensor_type;location;lat;lon;timestamp;P1;durP1;ratioP1;P2;durP2;ratioP2
7485;SDS011;3784;54.098;9.998;2022-10-18T00:02:02;23.80;;;15.70;;
7485;SDS011;3784;54.098;9.998;2022-10-18T00:04:28;21.33;;;16.13;;
7485;SDS011;3784;54.098;9.998;2022-10-18T00:06:55;25.27;;;16.53;;
7485;SDS011;3784;54.098;9.998;2022-10-18T00:09:21;25.20;;;17.20;;
7485;SDS011;3784;54.098;9.998;2022-10-18T00:11:48;22.63;;;15.43;;
7485;SDS011;3784;54.098;9.998;2022-10-18T00:14:14;23.93;;;16.47;;
7485;SDS011;3784;54.098;9.998;2022-10-18T00:16:41;19.40;;;15.67;;
7485;SDS011;3784;54.098;9.998;2022-10-18T00:19:07;26.27;;;18.20;;
7485;SDS011;3784;54.098;9.998;2022-10-18T00:21:34;26.37;;;17.43;;
7485;SDS011;3784;54.098;9.998;2022-10-18T00:24:01;30.40;;;19.87;;
7485;SDS011;3784;54.098;9.998;2022-10-18T00:26:28;26.50;;;18.73;;
7485;SDS011;3784;54.098;9.998;2022-10-18T00:28:59;22.20;;;16.63;;
7485;SDS011;3784;54.098;9.998;2022-10-18T00:31:28;20.50;;;14.83;;
7485;SDS011;3784;54.098;9.998;2022-10-18T00:33:55;20.40;;;15.40;;
7485;SDS011;3784;54.098;9.998;2022-10-18T00:36:24;28.27;;;17.80;;
7485;SDS011;3784;54.098;9.998;2022-10-18T00:38:51;23.27;;;17.23;;
7485;SDS011;3784;54.098;9.998;2022-10-18T00:41:22;24.70;;;17.30;;
7485;SDS011;3784;54.098;9.998;2022-10-18T00:46:29;24.47;;;17.07;;
7485;SDS011;3784;54.098;9.998;2022-10-18T00:48:57;27.07;;;18.30;;
7485;SDS011;3784;54.098;9.998;2022-10-18T00:51:27;30.57;;;19.73;;
7485;SDS011;3784;54.098;9.998;2022-10-18T00:53:55;33.53;;;20.83;;
7485;SDS011;3784;54.098;9.998;2022-10-18T00:56:22;32.50;;;21.13;;
7485;SDS011;3784;54.098;9.998;2022-10-18T00:58:48;32.37;;;21.50;;
7485;SDS011;3784;54.098;9.998;2022-10-18T01:01:16;29.87;;;18.63;;
7485;SDS011;3784;54.098;9.998;2022-10-18T01:03:42;50.27;;;25.97;;
7485;SDS011;3784;54.098;9.998;2022-10-18T01:06:09;29.80;;;20.33;;
7485;SDS011;3784;54.098;9.998;2022-10-18T01:16:46;32.90;;;21.30;;
7485;SDS011;3784;54.098;9.998;2022-10-18T01:21:53;35.40;;;23.20;;
7485;SDS011;3784;54.098;9.998;2022-10-18T01:30:04;34.73;;;20.97;;
7485;SDS011;3784;54.098;9.998;2022-10-18T01:32:51;37.87;;;20.73;;
7485;SDS011;3784;54.098;9.998;2022-10-18T01:35:25;31.70;;;21.00;;
7485;SDS011;3784;54.098;9.998;2022-10-18T01:37:55;32.83;;;21.10;;
7485;SDS011;3784;54.098;9.998;2022-10-18T01:40:22;37.03;;;20.00;;
7485;SDS011;3784;54.098;9.998;2022-10-18T01:42:49;35.63;;;20.93;;
7485;SDS011;3784;54.098;9.998;2022-10-18T01:45:16;36.30;;;22.13;;
7485;SDS011;3784;54.098;9.998;2022-10-18T01:47:44;33.00;;;21.10;;
7485;SDS011;3784;54.098;9.998;2022-10-18T01:50:12;28.97;;;18.53;;
7485;SDS011;3784;54.098;9.998;2022-10-18T01:52:46;40.37;;;22.60;;
7485;SDS011;3784;54.098;9.998;2022-10-18T01:55:16;67.17;;;29.70;;
7485;SDS011;3784;54.098;9.998;2022-10-18T01:57:48;27.80;;;18.30;;
7485;SDS011;3784;54.098;9.998;2022-10-18T02:00:40;26.37;;;18.80;;
7485;SDS011;3784;54.098;9.998;2022-10-18T02:03:13;67.87;;;30.23;;
7485;SDS011;3784;54.098;9.998;2022-10-18T02:08:36;45.23;;;26.87;;
7485;SDS011;3784;54.098;9.998;2022-10-18T02:11:07;33.60;;;21.37;;
7485;SDS011;3784;54.098;9.998;2022-10-18T02:13:36;35.97;;;21.93;;
7485;SDS011;3784;54.098;9.998;2022-10-18T02:16:06;34.77;;;22.63;;
7485;SDS011;3784;54.098;9.998;2022-10-18T02:18:54;31.30;;;21.47;;
7485;SDS011;3784;54.098;9.998;2022-10-18T02:21:42;34.37;;;22.87;;
7485;SDS011;3784;54.098;9.998;2022-10-18T02:24:10;35.93;;;23.30;;
7485;SDS011;3784;54.098;9.998;2022-10-18T02:26:38;40.33;;;24.63;;
7485;SDS011;3784;54.098;9.998;2022-10-18T02:29:05;45.03;;;27.07;;
7485;SDS011;3784;54.098;9.998;2022-10-18T02:31:35;37.43;;;25.20;;
7485;SDS011;3784;54.098;9.998;2022-10-18T02:34:07;62.97;;;32.87;;
7485;SDS011;3784;54.098;9.998;2022-10-18T02:36:46;59.93;;;31.23;;
7485;SDS011;3784;54.098;9.998;2022-10-18T02:39:17;58.00;;;33.03;;
7485;SDS011;3784;54.098;9.998;2022-10-18T02:41:46;54.63;;;31.17;;
7485;SDS011;3784;54.098;9.998;2022-10-18T02:44:12;58.83;;;34.73;;
7485;SDS011;3784;54.098;9.998;2022-10-18T02:46:39;68.60;;;35.23;;
7485;SDS011;3784;54.098;9.998;2022-10-18T02:49:05;62.93;;;35.77;;
7485;SDS011;3784;54.098;9.998;2022-10-18T02:51:32;59.30;;;35.13;;
7485;SDS011;3784;54.098;9.998;2022-10-18T02:53:59;74.93;;;38.53;;
7485;SDS011;3784;54.098;9.998;2022-10-18T02:56:25;66.67;;;36.57;;
7485;SDS011;3784;54.098;9.998;2022-10-18T02:58:52;96.73;;;40.57;;
7485;SDS011;3784;54.098;9.998;2022-10-18T03:01:18;73.67;;;37.07;;
7485;SDS011;3784;54.098;9.998;2022-10-18T03:03:45;65.70;;;35.07;;
7485;SDS011;3784;54.098;9.998;2022-10-18T03:06:11;75.77;;;36.87;;
7485;SDS011;3784;54.098;9.998;2022-10-18T03:08:38;77.63;;;39.23;;
7485;SDS011;3784;54.098;9.998;2022-10-18T03:11:04;101.40;;;42.27;;
7485;SDS011;3784;54.098;9.998;2022-10-18T03:13:31;70.33;;;37.63;;
7485;SDS011;3784;54.098;9.998;2022-10-18T03:15:59;102.20;;;41.23;;
7485;SDS011;3784;54.098;9.998;2022-10-18T03:18:26;62.30;;;36.00;;
7485;SDS011;3784;54.098;9.998;2022-10-18T03:20:52;85.57;;;40.27;;
7485;SDS011;3784;54.098;9.998;2022-10-18T03:23:19;80.80;;;37.20;;
7485;SDS011;3784;54.098;9.998;2022-10-18T03:25:45;72.17;;;37.13;;
7485;SDS011;3784;54.098;9.998;2022-10-18T03:28:12;77.03;;;38.70;;
7485;SDS011;3784;54.098;9.998;2022-10-18T03:30:38;111.27;;;42.63;;
7485;SDS011;3784;54.098;9.998;2022-10-18T03:33:05;85.40;;;39.40;;
7485;SDS011;3784;54.098;9.998;2022-10-18T03:35:32;112.87;;;44.20;;
7485;SDS011;3784;54.098;9.998;2022-10-18T03:37:58;70.47;;;38.27;;
7485;SDS011;3784;54.098;9.998;2022-10-18T03:40:25;72.73;;;36.87;;
7485;SDS011;3784;54.098;9.998;2022-10-18T03:42:51;95.43;;;41.23;;
7485;SDS011;3784;54.098;9.998;2022-10-18T03:45:18;79.03;;;37.80;;
7485;SDS011;3784;54.098;9.998;2022-10-18T03:47:44;83.43;;;40.17;;
7485;SDS011;3784;54.098;9.998;2022-10-18T03:50:11;71.30;;;36.73;;
7485;SDS011;3784;54.098;9.998;2022-10-18T03:52:37;80.00;;;40.07;;
7485;SDS011;3784;54.098;9.998;2022-10-18T03:55:04;104.20;;;41.47;;
7485;SDS011;3784;54.098;9.998;2022-10-18T03:57:31;114.97;;;42.90;;
7485;SDS011;3784;54.098;9.998;2022-10-18T03:59:57;95.67;;;41.20;;
7485;SDS011;3784;54.098;9.998;2022-10-18T04:02:24;92.27;;;39.80;;
7485;SDS011;3784;54.098;9.998;2022-10-18T04:04:51;59.47;;;34.70;;
7485;SDS011;3784;54.098;9.998;2022-10-18T04:07:17;64.63;;;34.90;;
7485;SDS011;3784;54.098;9.998;2022-10-18T04:09:44;63.07;;;33.33;;
7485;SDS011;3784;54.098;9.998;2022-10-18T04:12:10;110.33;;;43.33;;
7485;SDS011;3784;54.098;9.998;2022-10-18T04:14:37;99.87;;;40.83;;
7485;SDS011;3784;54.098;9.998;2022-10-18T04:17:03;71.73;;;35.90;;
7485;SDS011;3784;54.098;9.998;2022-10-18T04:19:30;60.97;;;34.67;;
7485;SDS011;3784;54.098;9.998;2022-10-18T04:21:56;76.57;;;36.10;;
7485;SDS011;3784;54.098;9.998;2022-10-18T04:24:23;69.23;;;34.67;;
7485;SDS011;3784;54.098;9.998;2022-10-18T04:26:49;49.33;;;30.10;;
7485;SDS011;3784;54.098;9.998;2022-10-18T04:29:16;52.03;;;31.67;;
7485;SDS011;3784;54.098;9.998;2022-10-18T04:31:42;60.50;;;33.13;;
7485;SDS011;3784;54.098;9.998;2022-10-18T04:34:09;60.60;;;30.97;;
7485;SDS011;3784;54.098;9.998;2022-10-18T04:36:35;85.43;;;36.53;;
7485;SDS011;3784;54.098;9.998;2022-10-18T04:39:02;69.20;;;33.00;;
7485;SDS011;3784;54.098;9.998;2022-10-18T04:41:28;84.13;;;37.80;;
7485;SDS011;3784;54.098;9.998;2022-10-18T04:43:55;56.70;;;31.63;;
7485;SDS011;3784;54.098;9.998;2022-10-18T04:46:21;56.63;;;32.20;;
7485;SDS011;3784;54.098;9.998;2022-10-18T04:48:48;72.80;;;34.43;;
7485;SDS011;3784;54.098;9.998;2022-10-18T04:51:14;57.80;;;31.50;;
7485;SDS011;3784;54.098;9.998;2022-10-18T04:53:41;62.40;;;31.07;;
7485;SDS011;3784;54.098;9.998;2022-10-18T04:56:07;73.57;;;34.67;;
7485;SDS011;3784;54.098;9.998;2022-10-18T04:58:34;66.80;;;33.10;;
7485;SDS011;3784;54.098;9.998;2022-10-18T05:01:03;55.27;;;30.90;;
7485;SDS011;3784;54.098;9.998;2022-10-18T05:03:31;75.10;;;35.37;;
7485;SDS011;3784;54.098;9.998;2022-10-18T05:05:57;52.50;;;29.50;;
7485;SDS011;3784;54.098;9.998;2022-10-18T05:08:29;54.50;;;29.73;;
7485;SDS011;3784;54.098;9.998;2022-10-18T05:10:55;52.67;;;28.87;;
7485;SDS011;3784;54.098;9.998;2022-10-18T05:13:22;59.40;;;31.67;;
7485;SDS011;3784;54.098;9.998;2022-10-18T05:15:48;70.37;;;34.57;;
7485;SDS011;3784;54.098;9.998;2022-10-18T05:18:15;61.87;;;31.83;;
7485;SDS011;3784;54.098;9.998;2022-10-18T05:20:41;65.17;;;33.27;;
7485;SDS011;3784;54.098;9.998;2022-10-18T05:23:08;62.03;;;32.30;;
7485;SDS011;3784;54.098;9.998;2022-10-18T05:25:38;72.50;;;34.50;;
7485;SDS011;3784;54.098;9.998;2022-10-18T05:28:05;83.07;;;35.10;;
7485;SDS011;3784;54.098;9.998;2022-10-18T05:30:46;77.53;;;36.00;;
7485;SDS011;3784;54.098;9.998;2022-10-18T05:33:12;58.77;;;30.10;;
7485;SDS011;3784;54.098;9.998;2022-10-18T05:35:39;83.37;;;34.17;;
7485;SDS011;3784;54.098;9.998;2022-10-18T05:38:05;62.27;;;32.10;;
7485;SDS011;3784;54.098;9.998;2022-10-18T05:40:32;58.53;;;30.40;;
7485;SDS011;3784;54.098;9.998;2022-10-18T05:42:59;76.37;;;35.10;;
7485;SDS011;3784;54.098;9.998;2022-10-18T05:45:25;67.87;;;33.47;;
7485;SDS011;3784;54.098;9.998;2022-10-18T05:47:52;61.60;;;32.83;;
7485;SDS011;3784;54.098;9.998;2022-10-18T05:50:19;78.47;;;34.30;;
7485;SDS011;3784;54.098;9.998;2022-10-18T05:52:45;73.57;;;34.43;;
7485;SDS011;3784;54.098;9.998;2022-10-18T05:55:12;61.70;;;32.03;;
7485;SDS011;3784;54.098;9.998;2022-10-18T05:57:39;69.07;;;33.20;;
7485;SDS011;3784;54.098;9.998;2022-10-18T06:00:05;65.87;;;31.73;;
7485;SDS011;3784;54.098;9.998;2022-10-18T06:02:32;59.63;;;32.13;;
7485;SDS011;3784;54.098;9.998;2022-10-18T06:04:58;83.10;;;37.33;;
7485;SDS011;3784;54.098;9.998;2022-10-18T06:07:25;88.73;;;36.43;;
7485;SDS011;3784;54.098;9.998;2022-10-18T06:09:51;87.53;;;36.63;;
7485;SDS011;3784;54.098;9.998;2022-10-18T06:12:18;65.07;;;34.17;;
7485;SDS011;3784;54.098;9.998;2022-10-18T06:14:44;80.00;;;36.37;;
7485;SDS011;3784;54.098;9.998;2022-10-18T06:17:11;67.00;;;35.03;;
7485;SDS011;3784;54.098;9.998;2022-10-18T06:19:37;67.30;;;34.57;;
7485;SDS011;3784;54.098;9.998;2022-10-18T06:22:04;65.20;;;31.90;;
7485;SDS011;3784;54.098;9.998;2022-10-18T06:24:30;65.33;;;33.03;;
7485;SDS011;3784;54.098;9.998;2022-10-18T06:26:57;74.27;;;35.70;;
7485;SDS011;3784;54.098;9.998;2022-10-18T06:29:24;59.40;;;32.40;;
7485;SDS011;3784;54.098;9.998;2022-10-18T06:31:50;57.93;;;31.90;;
7485;SDS011;3784;54.098;9.998;2022-10-18T06:34:17;61.90;;;31.93;;
7485;SDS011;3784;54.098;9.998;2022-10-18T06:36:43;61.83;;;32.47;;
7485;SDS011;3784;54.098;9.998;2022-10-18T06:39:10;66.03;;;32.30;;
7485;SDS011;3784;54.098;9.998;2022-10-18T06:41:36;65.30;;;32.33;;
7485;SDS011;3784;54.098;9.998;2022-10-18T06:44:03;55.10;;;27.63;;
7485;SDS011;3784;54.098;9.998;2022-10-18T06:46:42;59.20;;;31.77;;
7485;SDS011;3784;54.098;9.998;2022-10-18T06:49:09;57.60;;;31.97;;
7485;SDS011;3784;54.098;9.998;2022-10-18T06:51:40;58.20;;;34.77;;
7485;SDS011;3784;54.098;9.998;2022-10-18T06:54:07;50.60;;;28.20;;
7485;SDS011;3784;54.098;9.998;2022-10-18T06:56:49;54.07;;;27.10;;
7485;SDS011;3784;54.098;9.998;2022-10-18T06:59:15;46.00;;;26.47;;
7485;SDS011;3784;54.098;9.998;2022-10-18T07:01:43;53.00;;;27.07;;
7485;SDS011;3784;54.098;9.998;2022-10-18T07:04:09;59.53;;;28.13;;
7485;SDS011;3784;54.098;9.998;2022-10-18T07:06:36;55.67;;;28.10;;
7485;SDS011;3784;54.098;9.998;2022-10-18T07:09:02;57.47;;;28.90;;
7485;SDS011;3784;54.098;9.998;2022-10-18T07:11:29;53.50;;;29.47;;
7485;SDS011;3784;54.098;9.998;2022-10-18T07:13:58;66.13;;;29.90;;
7485;SDS011;3784;54.098;9.998;2022-10-18T07:16:31;68.40;;;31.00;;
7485;SDS011;3784;54.098;9.998;2022-10-18T07:18:58;69.77;;;31.83;;
7485;SDS011;3784;54.098;9.998;2022-10-18T07:21:25;48.87;;;27.10;;
7485;SDS011;3784;54.098;9.998;2022-10-18T07:23:52;55.57;;;25.40;;
7485;SDS011;3784;54.098;9.998;2022-10-18T07:26:19;51.27;;;27.20;;
7485;SDS011;3784;54.098;9.998;2022-10-18T07:28:50;52.70;;;25.77;;
7485;SDS011;3784;54.098;9.998;2022-10-18T07:31:20;50.47;;;26.37;;
7485;SDS011;3784;54.098;9.998;2022-10-18T07:33:47;53.90;;;26.00;;
7485;SDS011;3784;54.098;9.998;2022-10-18T07:36:14;62.27;;;28.37;;
7485;SDS011;3784;54.098;9.998;2022-10-18T07:38:41;58.83;;;28.47;;
7485;SDS011;3784;54.098;9.998;2022-10-18T07:41:09;60.87;;;29.60;;
7485;SDS011;3784;54.098;9.998;2022-10-18T07:43:40;45.70;;;25.43;;
7485;SDS011;3784;54.098;9.998;2022-10-18T07:46:11;49.97;;;26.20;;
7485;SDS011;3784;54.098;9.998;2022-10-18T07:48:38;48.57;;;24.93;;
7485;SDS011;3784;54.098;9.998;2022-10-18T07:51:04;47.07;;;26.63;;
7485;SDS011;3784;54.098;9.998;2022-10-18T07:53:31;58.17;;;27.40;;
7485;SDS011;3784;54.098;9.998;2022-10-18T07:56:00;52.23;;;27.20;;
7485;SDS011;3784;54.098;9.998;2022-10-18T07:58:33;47.93;;;25.97;;
7485;SDS011;3784;54.098;9.998;2022-10-18T08:01:00;39.40;;;24.37;;
7485;SDS011;3784;54.098;9.998;2022-10-18T08:03:30;50.17;;;25.77;;
7485;SDS011;3784;54.098;9.998;2022-10-18T08:05:57;47.90;;;26.30;;
7485;SDS011;3784;54.098;9.998;2022-10-18T08:08:24;48.50;;;26.63;;
7485;SDS011;3784;54.098;9.998;2022-10-18T08:10:51;48.87;;;27.63;;
7485;SDS011;3784;54.098;9.998;2022-10-18T08:13:17;48.43;;;27.00;;
7485;SDS011;3784;54.098;9.998;2022-10-18T08:15:44;82.27;;;31.00;;
7485;SDS011;3784;54.098;9.998;2022-10-18T08:18:11;52.07;;;26.23;;
7485;SDS011;3784;54.098;9.998;2022-10-18T08:20:41;50.03;;;25.63;;
7485;SDS011;3784;54.098;9.998;2022-10-18T08:23:09;47.73;;;24.57;;
7485;SDS011;3784;54.098;9.998;2022-10-18T08:25:35;58.90;;;26.53;;
7485;SDS011;3784;54.098;9.998;2022-10-18T08:28:02;43.50;;;23.27;;
7485;SDS011;3784;54.098;9.998;2022-10-18T08:30:29;49.17;;;23.53;;
7485;SDS011;3784;54.098;9.998;2022-10-18T08:32:55;43.57;;;23.40;;
7485;SDS011;3784;54.098;9.998;2022-10-18T08:35:22;43.23;;;22.90;;
7485;SDS011;3784;54.098;9.998;2022-10-18T08:37:48;47.47;;;25.93;;
7485;SDS011;3784;54.098;9.998;2022-10-18T08:40:15;38.83;;;21.10;;
7485;SDS011;3784;54.098;9.998;2022-10-18T08:45:27;42.53;;;22.63;;
7485;SDS011;3784;54.098;9.998;2022-10-18T08:48:08;42.10;;;21.60;;
7485;SDS011;3784;54.098;9.998;2022-10-18T08:51:02;40.73;;;22.20;;
7485;SDS011;3784;54.098;9.998;2022-10-18T08:53:35;46.37;;;24.83;;
7485;SDS011;3784;54.098;9.998;2022-10-18T08:56:09;42.97;;;22.37;;
7485;SDS011;3784;54.098;9.998;2022-10-18T08:58:41;43.03;;;21.97;;
7485;SDS011;3784;54.098;9.998;2022-10-18T09:09:34;40.43;;;21.30;;
7485;SDS011;3784;54.098;9.998;2022-10-18T09:21:00;32.43;;;18.77;;
7485;SDS011;3784;54.098;9.998;2022-10-18T09:23:53;35.23;;;18.47;;
7485;SDS011;3784;54.098;9.998;2022-10-18T09:26:26;34.07;;;17.93;;
7485;SDS011;3784;54.098;9.998;2022-10-18T09:32:00;31.17;;;15.77;;
7485;SDS011;3784;54.098;9.998;2022-10-18T09:37:12;29.07;;;13.60;;
7485;SDS011;3784;54.098;9.998;2022-10-18T09:39:40;23.03;;;12.57;;
7485;SDS011;3784;54.098;9.998;2022-10-18T09:42:10;23.07;;;11.83;;
7485;SDS011;3784;54.098;9.998;2022-10-18T09:44:44;19.90;;;11.73;;
7485;SDS011;3784;54.098;9.998;2022-10-18T09:49:49;24.50;;;11.00;;
7485;SDS011;3784;54.098;9.998;2022-10-18T09:52:18;21.23;;;9.80;;
7485;SDS011;3784;54.098;9.998;2022-10-18T09:54:50;23.30;;;9.33;;
7485;SDS011;3784;54.098;9.998;2022-10-18T09:59:50;18.07;;;8.27;;
7485;SDS011;3784;54.098;9.998;2022-10-18T10:02:22;17.87;;;7.87;;
7485;SDS011;3784;54.098;9.998;2022-10-18T10:04:49;15.97;;;7.53;;
7485;SDS011;3784;54.098;9.998;2022-10-18T10:07:18;17.53;;;7.47;;
7485;SDS011;3784;54.098;9.998;2022-10-18T10:13:04;17.30;;;7.60;;
7485;SDS011;3784;54.098;9.998;2022-10-18T10:15:32;20.70;;;6.63;;
7485;SDS011;3784;54.098;9.998;2022-10-18T10:18:18;15.80;;;6.03;;
7485;SDS011;3784;54.098;9.998;2022-10-18T10:20:50;15.60;;;5.77;;
7485;SDS011;3784;54.098;9.998;2022-10-18T10:26:20;13.03;;;5.80;;
7485;SDS011;3784;54.098;9.998;2022-10-18T10:28:48;14.80;;;5.43;;
7485;SDS011;3784;54.098;9.998;2022-10-18T10:31:31;14.30;;;4.50;;
7485;SDS011;3784;54.098;9.998;2022-10-18T10:36:45;11.20;;;4.43;;
7485;SDS011;3784;54.098;9.998;2022-10-18T10:39:14;15.50;;;4.80;;
7485;SDS011;3784;54.098;9.998;2022-10-18T10:41:47;12.77;;;4.33;;
7485;SDS011;3784;54.098;9.998;2022-10-18T10:44:19;14.27;;;5.23;;
7485;SDS011;3784;54.098;9.998;2022-10-18T10:46:48;13.07;;;4.30;;
7485;SDS011;3784;54.098;9.998;2022-10-18T10:49:17;10.40;;;4.20;;
7485;SDS011;3784;54.098;9.998;2022-10-18T10:52:05;10.10;;;3.80;;
7485;SDS011;3784;54.098;9.998;2022-10-18T10:54:47;14.47;;;4.33;;
7485;SDS011;3784;54.098;9.998;2022-10-18T10:57:25;13.37;;;4.50;;
7485;SDS011;3784;54.098;9.998;2022-10-18T10:59:53;13.77;;;4.70;;
7485;SDS011;3784;54.098;9.998;2022-10-18T11:02:22;10.60;;;3.97;;
7485;SDS011;3784;54.098;9.998;2022-10-18T11:04:53;15.67;;;3.80;;
7485;SDS011;3784;54.098;9.998;2022-10-18T11:12:45;12.57;;;3.97;;
7485;SDS011;3784;54.098;9.998;2022-10-18T11:25:32;9.97;;;3.47;;
7485;SDS011;3784;54.098;9.998;2022-10-18T11:28:09;11.93;;;3.77;;
7485;SDS011;3784;54.098;9.998;2022-10-18T11:33:12;11.23;;;3.33;;
7485;SDS011;3784;54.098;9.998;2022-10-18T11:38:23;11.80;;;3.53;;
7485;SDS011;3784;54.098;9.998;2022-10-18T11:46:37;14.97;;;4.33;;
7485;SDS011;3784;54.098;9.998;2022-10-18T11:54:40;11.47;;;3.40;;
7485;SDS011;3784;54.098;9.998;2022-10-18T11:57:18;10.37;;;3.20;;
7485;SDS011;3784;54.098;9.998;2022-10-18T12:00:26;8.77;;;3.33;;
7485;SDS011;3784;54.098;9.998;2022-10-18T12:03:00;9.00;;;3.20;;
7485;SDS011;3784;54.098;9.998;2022-10-18T12:05:33;14.13;;;4.17;;
7485;SDS011;3784;54.098;9.998;2022-10-18T12:08:04;14.33;;;3.90;;
7485;SDS011;3784;54.098;9.998;2022-10-18T12:10:34;10.50;;;3.60;;
7485;SDS011;3784;54.098;9.998;2022-10-18T12:14:06;13.37;;;3.63;;
7485;SDS011;3784;54.098;9.998;2022-10-18T12:16:16;11.33;;;3.83;;
7485;SDS011;3784;54.098;9.998;2022-10-18T12:18:49;10.90;;;3.27;;
7485;SDS011;3784;54.098;9.998;2022-10-18T12:21:20;10.10;;;3.20;;
7485;SDS011;3784;54.098;9.998;2022-10-18T12:23:57;9.27;;;3.20;;
7485;SDS011;3784;54.098;9.998;2022-10-18T12:26:26;11.13;;;3.00;;
7485;SDS011;3784;54.098;9.998;2022-10-18T12:31:42;11.43;;;3.50;;
7485;SDS011;3784;54.098;9.998;2022-10-18T12:34:23;17.60;;;3.17;;
7485;SDS011;3784;54.098;9.998;2022-10-18T12:39:32;12.33;;;3.23;;
7485;SDS011;3784;54.098;9.998;2022-10-18T12:42:19;7.37;;;2.80;;
7485;SDS011;3784;54.098;9.998;2022-10-18T12:44:48;11.57;;;3.43;;
7485;SDS011;3784;54.098;9.998;2022-10-18T12:47:22;11.27;;;3.33;;
7485;SDS011;3784;54.098;9.998;2022-10-18T12:49:59;10.13;;;3.30;;
7485;SDS011;3784;54.098;9.998;2022-10-18T12:52:29;11.80;;;3.53;;
7485;SDS011;3784;54.098;9.998;2022-10-18T13:18:49;10.00;;;2.73;;
7485;SDS011;3784;54.098;9.998;2022-10-18T13:30:13;9.47;;;2.60;;
7485;SDS011;3784;54.098;9.998;2022-10-18T13:38:18;8.20;;;2.70;;
7485;SDS011;3784;54.098;9.998;2022-10-18T13:41:01;6.87;;;2.53;;
7485;SDS011;3784;54.098;9.998;2022-10-18T13:48:51;8.83;;;2.97;;
7485;SDS011;3784;54.098;9.998;2022-10-18T13:57:09;6.60;;;2.37;;
7485;SDS011;3784;54.098;9.998;2022-10-18T14:05:54;10.67;;;2.20;;
7485;SDS011;3784;54.098;9.998;2022-10-18T14:11:05;10.93;;;2.70;;
7485;SDS011;3784;54.098;9.998;2022-10-18T14:13:44;8.50;;;2.60;;
7485;SDS011;3784;54.098;9.998;2022-10-18T14:16:30;10.73;;;2.70;;
7485;SDS011;3784;54.098;9.998;2022-10-18T14:19:06;8.93;;;2.77;;
7485;SDS011;3784;54.098;9.998;2022-10-18T14:21:37;9.40;;;2.60;;
7485;SDS011;3784;54.098;9.998;2022-10-18T14:24:12;7.57;;;3.03;;
7485;SDS011;3784;54.098;9.998;2022-10-18T14:26:43;9.80;;;3.00;;
7485;SDS011;3784;54.098;9.998;2022-10-18T14:29:16;11.00;;;2.73;;
7485;SDS011;3784;54.098;9.998;2022-10-18T14:31:51;8.87;;;2.57;;
7485;SDS011;3784;54.098;9.998;2022-10-18T14:34:19;9.90;;;2.23;;
7485;SDS011;3784;54.098;9.998;2022-10-18T14:36:46;6.53;;;2.57;;
7485;SDS011;3784;54.098;9.998;2022-10-18T14:39:18;14.63;;;2.90;;
7485;SDS011;3784;54.098;9.998;2022-10-18T14:41:47;9.70;;;3.00;;
7485;SDS011;3784;54.098;9.998;2022-10-18T14:44:17;14.93;;;3.60;;
7485;SDS011;3784;54.098;9.998;2022-10-18T14:46:50;8.20;;;3.10;;
7485;SDS011;3784;54.098;9.998;2022-10-18T14:49:17;11.10;;;2.87;;
7485;SDS011;3784;54.098;9.998;2022-10-18T14:51:45;8.57;;;2.63;;
7485;SDS011;3784;54.098;9.998;2022-10-18T14:54:22;7.37;;;2.67;;
7485;SDS011;3784;54.098;9.998;2022-10-18T14:56:57;6.83;;;2.30;;
7485;SDS011;3784;54.098;9.998;2022-10-18T14:59:25;8.90;;;2.67;;
7485;SDS011;3784;54.098;9.998;2022-10-18T15:02:00;13.27;;;3.03;;
7485;SDS011;3784;54.098;9.998;2022-10-18T15:04:28;9.20;;;2.80;;
7485;SDS011;3784;54.098;9.998;2022-10-18T15:07:05;8.33;;;2.50;;
7485;SDS011;3784;54.098;9.998;2022-10-18T15:09:33;9.33;;;2.30;;
7485;SDS011;3784;54.098;9.998;2022-10-18T15:12:04;6.70;;;2.50;;
7485;SDS011;3784;54.098;9.998;2022-10-18T15:14:31;10.03;;;2.80;;
7485;SDS011;3784;54.098;9.998;2022-10-18T15:17:00;11.73;;;3.13;;
7485;SDS011;3784;54.098;9.998;2022-10-18T15:19:34;7.83;;;2.30;;
7485;SDS011;3784;54.098;9.998;2022-10-18T15:22:05;5.43;;;2.13;;
7485;SDS011;3784;54.098;9.998;2022-10-18T15:27:57;8.93;;;2.90;;
7485;SDS011;3784;54.098;9.998;2022-10-18T15:32:54;7.70;;;2.60;;
7485;SDS011;3784;54.098;9.998;2022-10-18T15:35:26;13.53;;;3.10;;
7485;SDS011;3784;54.098;9.998;2022-10-18T15:37:55;6.27;;;2.90;;
7485;SDS011;3784;54.098;9.998;2022-10-18T15:42:50;5.87;;;1.93;;
7485;SDS011;3784;54.098;9.998;2022-10-18T15:48:00;12.97;;;2.77;;
7485;SDS011;3784;54.098;9.998;2022-10-18T15:50:40;8.13;;;2.60;;
7485;SDS011;3784;54.098;9.998;2022-10-18T15:53:53;7.37;;;2.30;;
7485;SDS011;3784;54.098;9.998;2022-10-18T15:58:54;5.10;;;2.00;;
7485;SDS011;3784;54.098;9.998;2022-10-18T16:04:09;6.90;;;2.70;;
7485;SDS011;3784;54.098;9.998;2022-10-18T16:06:43;8.83;;;2.60;;
7485;SDS011;3784;54.098;9.998;2022-10-18T16:09:14;10.90;;;2.23;;
7485;SDS011;3784;54.098;9.998;2022-10-18T16:11:43;8.17;;;1.90;;
7485;SDS011;3784;54.098;9.998;2022-10-18T16:14:09;6.03;;;2.30;;
7485;SDS011;3784;54.098;9.998;2022-10-18T16:16:37;10.83;;;2.67;;
7485;SDS011;3784;54.098;9.998;2022-10-18T16:19:04;9.83;;;2.77;;
7485;SDS011;3784;54.098;9.998;2022-10-18T16:21:34;10.37;;;2.80;;
7485;SDS011;3784;54.098;9.998;2022-10-18T16:24:03;9.10;;;2.67;;
7485;SDS011;3784;54.098;9.998;2022-10-18T16:26:30;5.80;;;2.53;;
7485;SDS011;3784;54.098;9.998;2022-10-18T16:28:56;10.63;;;2.53;;
7485;SDS011;3784;54.098;9.998;2022-10-18T16:31:25;9.67;;;2.77;;
7485;SDS011;3784;54.098;9.998;2022-10-18T16:33:53;8.23;;;2.40;;
7485;SDS011;3784;54.098;9.998;2022-10-18T16:36:21;5.87;;;2.13;;
7485;SDS011;3784;54.098;9.998;2022-10-18T16:38:51;8.10;;;2.50;;
7485;SDS011;3784;54.098;9.998;2022-10-18T16:41:20;6.40;;;2.10;;
7485;SDS011;3784;54.098;9.998;2022-10-18T16:43:47;3.83;;;1.60;;
7485;SDS011;3784;54.098;9.998;2022-10-18T16:46:21;4.87;;;1.90;;
7485;SDS011;3784;54.098;9.998;2022-10-18T16:48:52;4.87;;;1.80;;
7485;SDS011;3784;54.098;9.998;2022-10-18T16:51:19;5.43;;;1.80;;
7485;SDS011;3784;54.098;9.998;2022-10-18T16:53:46;5.07;;;1.33;;
7485;SDS011;3784;54.098;9.998;2022-10-18T16:56:14;7.73;;;2.10;;
7485;SDS011;3784;54.098;9.998;2022-10-18T16:58:42;5.43;;;1.80;;
7485;SDS011;3784;54.098;9.998;2022-10-18T17:01:13;9.67;;;1.97;;
7485;SDS011;3784;54.098;9.998;2022-10-18T17:03:42;6.23;;;2.03;;
7485;SDS011;3784;54.098;9.998;2022-10-18T17:06:12;6.33;;;2.00;;
7485;SDS011;3784;54.098;9.998;2022-10-18T17:08:40;7.93;;;2.20;;
7485;SDS011;3784;54.098;9.998;2022-10-18T17:11:08;4.97;;;1.53;;
7485;SDS011;3784;54.098;9.998;2022-10-18T17:13:35;6.77;;;2.20;;
7485;SDS011;3784;54.098;9.998;2022-10-18T17:16:03;7.90;;;2.43;;
7485;SDS011;3784;54.098;9.998;2022-10-18T17:18:30;5.30;;;2.33;;
7485;SDS011;3784;54.098;9.998;2022-10-18T17:20:57;7.97;;;1.83;;
7485;SDS011;3784;54.098;9.998;2022-10-18T17:23:28;6.87;;;2.20;;
7485;SDS011;3784;54.098;9.998;2022-10-18T17:25:55;10.53;;;2.53;;
7485;SDS011;3784;54.098;9.998;2022-10-18T17:28:40;6.33;;;2.23;;
7485;SDS011;3784;54.098;9.998;2022-10-18T17:31:07;6.83;;;2.03;;
7485;SDS011;3784;54.098;9.998;2022-10-18T17:33:33;7.70;;;2.73;;
7485;SDS011;3784;54.098;9.998;2022-10-18T17:36:00;7.10;;;2.70;;
7485;SDS011;3784;54.098;9.998;2022-10-18T17:38:26;9.07;;;2.30;;
7485;SDS011;3784;54.098;9.998;2022-10-18T17:40:53;7.27;;;2.50;;
7485;SDS011;3784;54.098;9.998;2022-10-18T17:43:19;7.07;;;2.37;;
7485;SDS011;3784;54.098;9.998;2022-10-18T17:45:46;10.50;;;2.40;;
7485;SDS011;3784;54.098;9.998;2022-10-18T17:48:14;8.73;;;2.13;;
7485;SDS011;3784;54.098;9.998;2022-10-18T17:53:11;8.73;;;2.40;;
7485;SDS011;3784;54.098;9.998;2022-10-18T17:55:38;9.13;;;2.37;;
7485;SDS011;3784;54.098;9.998;2022-10-18T17:58:05;9.40;;;2.43;;
7485;SDS011;3784;54.098;9.998;2022-10-18T18:00:31;10.30;;;2.30;;
7485;SDS011;3784;54.098;9.998;2022-10-18T18:02:58;7.57;;;2.00;;
7485;SDS011;3784;54.098;9.998;2022-10-18T18:05:31;10.77;;;2.57;;
7485;SDS011;3784;54.098;9.998;2022-10-18T18:07:58;10.70;;;2.53;;